sensor_id;sensor_type;location;lat;lon;timestamp;temperature;humidity
55083;DHT22;40978;52.850;6.506;2022-12-11T00:01:15;-0.30;99.90
55083;DHT22;40978;52.850;6.506;2022-12-11T00:03:41;-0.20;99.90
55083;DHT22;40978;52.850;6.506;2022-12-11T00:06:09;-0.20;99.90
55083;DHT22;40978;52.850;6.506;2022-12-11T00:08:35;-0.30;99.90
55083;DHT22;40978;52.850;6.506;2022-12-11T00:11:01;-0.30;99.90
55083;DHT22;40978;52.850;6.506;2022-12-11T00:13:27;-0.30;99.90
55083;DHT22;40978;52.850;6.506;2022-12-11T00:15:53;-0.20;99.90
55083;DHT22;40978;52.850;6.506;2022-12-11T00:18:19;-0.10;99.90
55083;DHT22;40978;52.850;6.506;2022-12-11T00:20:44;-0.20;99.90
55083;DHT22;40978;52.850;6.506;2022-12-11T00:23:10;-0.10;99.90
55083;DHT22;40978;52.850;6.506;2022-12-11T00:25:46;-0.10;99.90
55083;DHT22;40978;52.850;6.506;2022-12-11T00:28:15;-0.10;99.90
55083;DHT22;40978;52.850;6.506;2022-12-11T00:30:43;-0.20;99.90
55083;DHT22;40978;52.850;6.506;2022-12-11T00:33:10;-0.20;99.90
55083;DHT22;40978;52.850;6.506;2022-12-11T00:35:40;-0.10;99.90
55083;DHT22;40978;52.850;6.506;2022-12-11T00:38:07;-0.10;99.90
55083;DHT22;40978;52.850;6.506;2022-12-11T00:40:36;-0.10;99.90
55083;DHT22;40978;52.850;6.506;2022-12-11T00:43:02;-0.10;99.90
55083;DHT22;40978;52.850;6.506;2022-12-11T00:45:28;-0.20;99.90
55083;DHT22;40978;52.850;6.506;2022-12-11T00:47:54;-0.10;99.90
55083;DHT22;40978;52.850;6.506;2022-12-11T00:50:20;-0.10;99.90
55083;DHT22;40978;52.850;6.506;2022-12-11T00:52:45;-0.10;99.90
55083;DHT22;40978;52.850;6.506;2022-12-11T00:55:11;0.00;99.90
55083;DHT22;40978;52.850;6.506;2022-12-11T00:57:38;0.00;99.90
55083;DHT22;40978;52.850;6.506;2022-12-11T01:00:07;-0.10;99.90
55083;DHT22;40978;52.850;6.506;2022-12-11T01:02:33;-0.10;99.90
55083;DHT22;40978;52.850;6.506;2022-12-11T01:04:59;0.00;99.90
55083;DHT22;40978;52.850;6.506;2022-12-11T01:07:25;0.10;99.90
55083;DHT22;40978;52.850;6.506;2022-12-11T01:09:51;0.00;99.90
55083;DHT22;40978;52.850;6.506;2022-12-11T01:12:35;0.00;99.90
55083;DHT22;40978;52.850;6.506;2022-12-11T01:15:01;0.00;99.90
55083;DHT22;40978;52.850;6.506;2022-12-11T01:17:27;0.00;99.90
55083;DHT22;40978;52.850;6.506;2022-12-11T01:19:53;0.00;99.90
55083;DHT22;40978;52.850;6.506;2022-12-11T01:22:19;0.00;99.90
55083;DHT22;40978;52.850;6.506;2022-12-11T01:24:44;0.00;99.90
55083;DHT22;40978;52.850;6.506;2022-12-11T01:27:10;0.00;99.90
55083;DHT22;40978;52.850;6.506;2022-12-11T01:29:36;0.10;99.90
55083;DHT22;40978;52.850;6.506;2022-12-11T01:32:02;0.10;99.90
55083;DHT22;40978;52.850;6.506;2022-12-11T01:34:28;0.10;99.90
55083;DHT22;40978;52.850;6.506;2022-12-11T01:36:54;0.10;99.90
55083;DHT22;40978;52.850;6.506;2022-12-11T01:39:20;0.10;99.90
55083;DHT22;40978;52.850;6.506;2022-12-11T01:41:46;0.10;99.90
55083;DHT22;40978;52.850;6.506;2022-12-11T01:46:40;0.10;99.90
55083;DHT22;40978;52.850;6.506;2022-12-11T01:49:14;0.10;99.90
55083;DHT22;40978;52.850;6.506;2022-12-11T01:52:05;0.10;99.90
55083;DHT22;40978;52.850;6.506;2022-12-11T01:54:33;0.10;99.90
55083;DHT22;40978;52.850;6.506;2022-12-11T01:57:05;0.10;99.90
55083;DHT22;40978;52.850;6.506;2022-12-11T01:59:34;0.20;99.90
55083;DHT22;40978;52.850;6.506;2022-12-11T02:02:19;0.20;99.90
55083;DHT22;40978;52.850;6.506;2022-12-11T02:04:46;0.20;99.90
55083;DHT22;40978;52.850;6.506;2022-12-11T02:07:13;0.10;99.90
55083;DHT22;40978;52.850;6.506;2022-12-11T02:09:40;0.20;99.90
55083;DHT22;40978;52.850;6.506;2022-12-11T02:15:17;0.20;99.90
55083;DHT22;40978;52.850;6.506;2022-12-11T02:18:06;0.20;99.90
55083;DHT22;40978;52.850;6.506;2022-12-11T02:20:35;0.20;99.90
55083;DHT22;40978;52.850;6.506;2022-12-11T02:31:11;0.20;99.90
55083;DHT22;40978;52.850;6.506;2022-12-11T02:33:43;0.40;99.90
55083;DHT22;40978;52.850;6.506;2022-12-11T02:36:11;0.30;99.90
55083;DHT22;40978;52.850;6.506;2022-12-11T02:38:40;0.20;99.90
55083;DHT22;40978;52.850;6.506;2022-12-11T02:41:07;0.20;99.90
55083;DHT22;40978;52.850;6.506;2022-12-11T02:43:35;0.30;99.90
55083;DHT22;40978;52.850;6.506;2022-12-11T02:46:03;0.30;99.90
55083;DHT22;40978;52.850;6.506;2022-12-11T02:48:31;0.30;99.90
55083;DHT22;40978;52.850;6.506;2022-12-11T02:50:58;0.20;99.90
55083;DHT22;40978;52.850;6.506;2022-12-11T02:53:27;0.20;99.90
55083;DHT22;40978;52.850;6.506;2022-12-11T02:56:11;0.30;99.90
55083;DHT22;40978;52.850;6.506;2022-12-11T02:58:42;0.20;99.90
55083;DHT22;40978;52.850;6.506;2022-12-11T03:01:10;0.30;99.90
55083;DHT22;40978;52.850;6.506;2022-12-11T03:03:36;0.30;99.90
55083;DHT22;40978;52.850;6.506;2022-12-11T03:06:01;0.30;99.90
55083;DHT22;40978;52.850;6.506;2022-12-11T03:08:28;0.30;99.90
55083;DHT22;40978;52.850;6.506;2022-12-11T03:10:54;0.30;99.90
55083;DHT22;40978;52.850;6.506;2022-12-11T03:13:20;0.30;99.90
55083;DHT22;40978;52.850;6.506;2022-12-11T03:16:03;0.30;99.90
55083;DHT22;40978;52.850;6.506;2022-12-11T03:24:37;0.40;99.90
55083;DHT22;40978;52.850;6.506;2022-12-11T03:27:06;0.40;99.90
55083;DHT22;40978;52.850;6.506;2022-12-11T03:29:38;0.30;99.90
55083;DHT22;40978;52.850;6.506;2022-12-11T03:32:09;0.40;99.90
55083;DHT22;40978;52.850;6.506;2022-12-11T03:34:45;0.30;99.90
55083;DHT22;40978;52.850;6.506;2022-12-11T03:37:16;0.40;99.90
55083;DHT22;40978;52.850;6.506;2022-12-11T03:39:48;0.40;99.90
55083;DHT22;40978;52.850;6.506;2022-12-11T03:42:16;0.40;99.90
55083;DHT22;40978;52.850;6.506;2022-12-11T03:44:47;0.40;99.90
55083;DHT22;40978;52.850;6.506;2022-12-11T03:47:18;0.30;99.90
55083;DHT22;40978;52.850;6.506;2022-12-11T03:49:46;0.30;99.90
55083;DHT22;40978;52.850;6.506;2022-12-11T03:52:13;0.40;99.90
55083;DHT22;40978;52.850;6.506;2022-12-11T03:54:41;0.40;99.90
55083;DHT22;40978;52.850;6.506;2022-12-11T03:57:11;0.40;99.90
55083;DHT22;40978;52.850;6.506;2022-12-11T03:59:38;0.40;99.90
55083;DHT22;40978;52.850;6.506;2022-12-11T04:02:04;0.40;99.90
55083;DHT22;40978;52.850;6.506;2022-12-11T04:04:39;0.50;99.90
55083;DHT22;40978;52.850;6.506;2022-12-11T04:07:05;0.40;99.90
55083;DHT22;40978;52.850;6.506;2022-12-11T04:09:32;0.40;99.90
55083;DHT22;40978;52.850;6.506;2022-12-11T04:11:58;0.50;99.90
55083;DHT22;40978;52.850;6.506;2022-12-11T04:14:24;0.50;99.90
55083;DHT22;40978;52.850;6.506;2022-12-11T04:17:08;0.50;99.90
55083;DHT22;40978;52.850;6.506;2022-12-11T04:19:34;0.40;99.90
55083;DHT22;40978;52.850;6.506;2022-12-11T04:22:18;0.50;99.90
55083;DHT22;40978;52.850;6.506;2022-12-11T04:25:05;0.50;99.90
55083;DHT22;40978;52.850;6.506;2022-12-11T04:27:30;0.50;99.90
55083;DHT22;40978;52.850;6.506;2022-12-11T04:30:17;0.40;99.90
55083;DHT22;40978;52.850;6.506;2022-12-11T04:32:44;0.50;99.90
55083;DHT22;40978;52.850;6.506;2022-12-11T04:35:10;0.50;99.90
55083;DHT22;40978;52.850;6.506;2022-12-11T04:37:37;0.40;99.90
55083;DHT22;40978;52.850;6.506;2022-12-11T04:40:09;0.50;99.90
55083;DHT22;40978;52.850;6.506;2022-12-11T04:42:35;0.50;99.90
55083;DHT22;40978;52.850;6.506;2022-12-11T04:45:01;0.50;99.90
55083;DHT22;40978;52.850;6.506;2022-12-11T04:47:27;0.50;99.90
55083;DHT22;40978;52.850;6.506;2022-12-11T04:49:53;0.50;99.90
55083;DHT22;40978;52.850;6.506;2022-12-11T04:52:19;0.50;99.90
55083;DHT22;40978;52.850;6.506;2022-12-11T04:54:44;0.50;99.90
55083;DHT22;40978;52.850;6.506;2022-12-11T04:57:10;0.50;99.90
55083;DHT22;40978;52.850;6.506;2022-12-11T04:59:36;0.50;99.90
55083;DHT22;40978;52.850;6.506;2022-12-11T05:02:02;0.50;99.90
55083;DHT22;40978;52.850;6.506;2022-12-11T05:04:32;0.50;99.90
55083;DHT22;40978;52.850;6.506;2022-12-11T05:06:59;0.50;99.90
55083;DHT22;40978;52.850;6.506;2022-12-11T05:09:25;0.50;99.90
55083;DHT22;40978;52.850;6.506;2022-12-11T05:11:52;0.50;99.90
55083;DHT22;40978;52.850;6.506;2022-12-11T05:14:18;0.60;99.90
55083;DHT22;40978;52.850;6.506;2022-12-11T05:16:44;0.50;99.90
55083;DHT22;40978;52.850;6.506;2022-12-11T05:19:10;0.50;99.90
55083;DHT22;40978;52.850;6.506;2022-12-11T05:21:35;0.50;99.90
55083;DHT22;40978;52.850;6.506;2022-12-11T05:24:01;0.60;99.90
55083;DHT22;40978;52.850;6.506;2022-12-11T05:26:27;0.50;99.90
55083;DHT22;40978;52.850;6.506;2022-12-11T05:28:54;0.60;99.90
55083;DHT22;40978;52.850;6.506;2022-12-11T05:31:22;0.50;99.90
55083;DHT22;40978;52.850;6.506;2022-12-11T05:33:48;0.60;99.90
55083;DHT22;40978;52.850;6.506;2022-12-11T05:36:34;0.50;99.90
55083;DHT22;40978;52.850;6.506;2022-12-11T05:39:02;0.60;99.90
55083;DHT22;40978;52.850;6.506;2022-12-11T05:41:29;0.50;99.90
55083;DHT22;40978;52.850;6.506;2022-12-11T05:43:57;0.50;99.90
55083;DHT22;40978;52.850;6.506;2022-12-11T05:46:26;0.60;99.90
55083;DHT22;40978;52.850;6.506;2022-12-11T05:48:58;0.50;99.90
55083;DHT22;40978;52.850;6.506;2022-12-11T05:51:25;0.50;99.90
55083;DHT22;40978;52.850;6.506;2022-12-11T05:53:53;0.50;99.90
55083;DHT22;40978;52.850;6.506;2022-12-11T05:56:21;0.60;99.90
55083;DHT22;40978;52.850;6.506;2022-12-11T05:58:47;0.50;99.90
55083;DHT22;40978;52.850;6.506;2022-12-11T06:01:27;0.50;99.90
55083;DHT22;40978;52.850;6.506;2022-12-11T06:03:54;0.60;99.90
55083;DHT22;40978;52.850;6.506;2022-12-11T06:06:20;0.50;99.90
55083;DHT22;40978;52.850;6.506;2022-12-11T06:08:49;0.60;99.90
55083;DHT22;40978;52.850;6.506;2022-12-11T06:11:15;0.60;99.90
55083;DHT22;40978;52.850;6.506;2022-12-11T06:13:41;0.50;99.90
55083;DHT22;40978;52.850;6.506;2022-12-11T06:16:07;0.60;99.90
55083;DHT22;40978;52.850;6.506;2022-12-11T06:18:37;0.60;99.90
55083;DHT22;40978;52.850;6.506;2022-12-11T06:21:13;0.50;99.90
55083;DHT22;40978;52.850;6.506;2022-12-11T06:23:39;0.60;99.90
55083;DHT22;40978;52.850;6.506;2022-12-11T06:26:06;0.50;99.90
55083;DHT22;40978;52.850;6.506;2022-12-11T06:28:32;0.60;99.90
55083;DHT22;40978;52.850;6.506;2022-12-11T06:30:58;0.50;99.90
55083;DHT22;40978;52.850;6.506;2022-12-11T06:33:24;0.50;99.90
55083;DHT22;40978;52.850;6.506;2022-12-11T06:35:50;0.60;99.90
55083;DHT22;40978;52.850;6.506;2022-12-11T06:38:16;0.50;99.90
55083;DHT22;40978;52.850;6.506;2022-12-11T06:40:42;0.60;99.90
55083;DHT22;40978;52.850;6.506;2022-12-11T06:43:08;0.50;99.90
55083;DHT22;40978;52.850;6.506;2022-12-11T06:45:35;0.50;99.90
55083;DHT22;40978;52.850;6.506;2022-12-11T06:48:01;0.50;99.90
55083;DHT22;40978;52.850;6.506;2022-12-11T06:50:27;0.60;99.90
55083;DHT22;40978;52.850;6.506;2022-12-11T06:52:52;0.50;99.90
55083;DHT22;40978;52.850;6.506;2022-12-11T06:55:19;0.50;99.90
55083;DHT22;40978;52.850;6.506;2022-12-11T06:57:45;0.50;99.90
55083;DHT22;40978;52.850;6.506;2022-12-11T07:00:11;0.60;99.90
55083;DHT22;40978;52.850;6.506;2022-12-11T07:02:37;0.60;99.90
55083;DHT22;40978;52.850;6.506;2022-12-11T07:05:03;0.60;99.90
55083;DHT22;40978;52.850;6.506;2022-12-11T07:07:29;0.60;99.90
55083;DHT22;40978;52.850;6.506;2022-12-11T07:09:55;0.50;99.90
55083;DHT22;40978;52.850;6.506;2022-12-11T07:12:20;0.60;99.90
55083;DHT22;40978;52.850;6.506;2022-12-11T07:14:46;0.60;99.90
55083;DHT22;40978;52.850;6.506;2022-12-11T07:17:12;0.60;99.90
55083;DHT22;40978;52.850;6.506;2022-12-11T07:19:37;0.50;99.90
55083;DHT22;40978;52.850;6.506;2022-12-11T07:22:03;0.60;99.90
55083;DHT22;40978;52.850;6.506;2022-12-11T07:24:29;0.50;99.90
55083;DHT22;40978;52.850;6.506;2022-12-11T07:26:55;0.60;99.90
55083;DHT22;40978;52.850;6.506;2022-12-11T07:29:20;0.70;99.90
55083;DHT22;40978;52.850;6.506;2022-12-11T07:31:46;0.60;99.90
55083;DHT22;40978;52.850;6.506;2022-12-11T07:34:12;0.60;99.90
55083;DHT22;40978;52.850;6.506;2022-12-11T07:36:39;0.60;99.90
55083;DHT22;40978;52.850;6.506;2022-12-11T07:39:04;0.60;99.90
55083;DHT22;40978;52.850;6.506;2022-12-11T07:41:30;0.60;99.90
55083;DHT22;40978;52.850;6.506;2022-12-11T07:43:58;0.60;99.90
55083;DHT22;40978;52.850;6.506;2022-12-11T07:46:26;0.60;99.90
55083;DHT22;40978;52.850;6.506;2022-12-11T07:48:52;0.60;99.90
55083;DHT22;40978;52.850;6.506;2022-12-11T07:51:21;0.60;99.90
55083;DHT22;40978;52.850;6.506;2022-12-11T07:53:54;0.60;99.90
55083;DHT22;40978;52.850;6.506;2022-12-11T07:56:20;0.60;99.90
55083;DHT22;40978;52.850;6.506;2022-12-11T07:58:46;0.60;99.90
55083;DHT22;40978;52.850;6.506;2022-12-11T08:01:17;0.60;99.90
55083;DHT22;40978;52.850;6.506;2022-12-11T08:03:44;0.70;99.90
55083;DHT22;40978;52.850;6.506;2022-12-11T08:06:10;0.60;99.90
55083;DHT22;40978;52.850;6.506;2022-12-11T08:08:36;0.70;99.90
55083;DHT22;40978;52.850;6.506;2022-12-11T08:11:07;0.60;99.90
55083;DHT22;40978;52.850;6.506;2022-12-11T08:13:33;0.70;99.90
55083;DHT22;40978;52.850;6.506;2022-12-11T08:16:03;0.70;99.90
55083;DHT22;40978;52.850;6.506;2022-12-11T08:18:29;0.60;99.90
55083;DHT22;40978;52.850;6.506;2022-12-11T08:20:55;0.60;99.90
55083;DHT22;40978;52.850;6.506;2022-12-11T08:23:21;0.60;99.90
55083;DHT22;40978;52.850;6.506;2022-12-11T08:25:47;0.70;99.90
55083;DHT22;40978;52.850;6.506;2022-12-11T08:28:12;0.70;99.90
55083;DHT22;40978;52.850;6.506;2022-12-11T08:30:39;0.60;99.90
55083;DHT22;40978;52.850;6.506;2022-12-11T08:33:05;0.70;99.90
55083;DHT22;40978;52.850;6.506;2022-12-11T08:35:31;0.70;99.90
55083;DHT22;40978;52.850;6.506;2022-12-11T08:37:57;0.70;99.90
55083;DHT22;40978;52.850;6.506;2022-12-11T08:40:23;0.70;99.90
55083;DHT22;40978;52.850;6.506;2022-12-11T08:42:49;0.70;99.90
55083;DHT22;40978;52.850;6.506;2022-12-11T08:45:16;0.70;99.90
55083;DHT22;40978;52.850;6.506;2022-12-11T08:47:41;0.60;99.90
55083;DHT22;40978;52.850;6.506;2022-12-11T08:50:07;0.80;99.90
55083;DHT22;40978;52.850;6.506;2022-12-11T08:52:34;0.70;99.90
55083;DHT22;40978;52.850;6.506;2022-12-11T08:55:00;0.80;99.90
55083;DHT22;40978;52.850;6.506;2022-12-11T08:57:27;0.70;99.90
55083;DHT22;40978;52.850;6.506;2022-12-11T08:59:53;0.70;99.90
55083;DHT22;40978;52.850;6.506;2022-12-11T09:02:18;0.70;99.90
55083;DHT22;40978;52.850;6.506;2022-12-11T09:04:44;0.70;99.90
55083;DHT22;40978;52.850;6.506;2022-12-11T09:07:10;0.80;99.90
55083;DHT22;40978;52.850;6.506;2022-12-11T09:09:37;0.70;99.90
55083;DHT22;40978;52.850;6.506;2022-12-11T09:12:03;0.80;99.90
55083;DHT22;40978;52.850;6.506;2022-12-11T09:14:29;0.80;99.90
55083;DHT22;40978;52.850;6.506;2022-12-11T09:16:55;0.80;99.90
55083;DHT22;40978;52.850;6.506;2022-12-11T09:19:21;0.80;99.90
55083;DHT22;40978;52.850;6.506;2022-12-11T09:21:47;0.80;99.90
55083;DHT22;40978;52.850;6.506;2022-12-11T09:24:13;0.80;99.90
55083;DHT22;40978;52.850;6.506;2022-12-11T09:26:40;0.90;99.90
55083;DHT22;40978;52.850;6.506;2022-12-11T09:29:06;0.80;99.90
55083;DHT22;40978;52.850;6.506;2022-12-11T09:31:34;0.80;99.90
55083;DHT22;40978;52.850;6.506;2022-12-11T09:34:05;0.90;99.90
55083;DHT22;40978;52.850;6.506;2022-12-11T09:36:32;0.80;99.90
55083;DHT22;40978;52.850;6.506;2022-12-11T09:39:03;0.80;99.90
55083;DHT22;40978;52.850;6.506;2022-12-11T09:41:35;0.90;99.90
55083;DHT22;40978;52.850;6.506;2022-12-11T09:44:15;0.90;99.90
55083;DHT22;40978;52.850;6.506;2022-12-11T09:46:42;0.90;99.90
55083;DHT22;40978;52.850;6.506;2022-12-11T09:49:40;0.80;99.90
55083;DHT22;40978;52.850;6.506;2022-12-11T09:54:49;0.80;99.90
55083;DHT22;40978;52.850;6.506;2022-12-11T09:57:50;0.90;99.90
55083;DHT22;40978;52.850;6.506;2022-12-11T10:00:36;0.90;99.90
55083;DHT22;40978;52.850;6.506;2022-12-11T10:05:56;0.90;99.90
55083;DHT22;40978;52.850;6.506;2022-12-11T10:08:32;0.90;99.90
55083;DHT22;40978;52.850;6.506;2022-12-11T10:13:58;0.90;99.90
55083;DHT22;40978;52.850;6.506;2022-12-11T10:16:40;0.80;99.90
55083;DHT22;40978;52.850;6.506;2022-12-11T10:19:28;0.90;99.90
55083;DHT22;40978;52.850;6.506;2022-12-11T10:21:55;0.90;99.90
55083;DHT22;40978;52.850;6.506;2022-12-11T10:26:55;0.90;99.90
55083;DHT22;40978;52.850;6.506;2022-12-11T10:29:23;0.90;99.90
55083;DHT22;40978;52.850;6.506;2022-12-11T10:31:55;0.90;99.90
55083;DHT22;40978;52.850;6.506;2022-12-11T10:34:35;1.00;99.90
55083;DHT22;40978;52.850;6.506;2022-12-11T10:37:04;1.00;99.90
55083;DHT22;40978;52.850;6.506;2022-12-11T10:39:30;1.10;99.90
55083;DHT22;40978;52.850;6.506;2022-12-11T10:41:56;1.00;99.90
55083;DHT22;40978;52.850;6.506;2022-12-11T10:44:28;0.90;99.90
55083;DHT22;40978;52.850;6.506;2022-12-11T10:47:09;1.00;99.90
55083;DHT22;40978;52.850;6.506;2022-12-11T10:49:37;1.00;99.90
55083;DHT22;40978;52.850;6.506;2022-12-11T10:52:21;0.90;99.90
55083;DHT22;40978;52.850;6.506;2022-12-11T10:57:28;0.90;99.90
55083;DHT22;40978;52.850;6.506;2022-12-11T10:59:55;0.90;99.90
55083;DHT22;40978;52.850;6.506;2022-12-11T11:02:35;1.00;99.90
55083;DHT22;40978;52.850;6.506;2022-12-11T11:05:25;1.00;99.90
55083;DHT22;40978;52.850;6.506;2022-12-11T11:08:15;1.00;99.90
55083;DHT22;40978;52.850;6.506;2022-12-11T11:10:58;1.00;99.90
55083;DHT22;40978;52.850;6.506;2022-12-11T11:13:27;1.10;99.90
55083;DHT22;40978;52.850;6.506;2022-12-11T11:18:28;1.00;99.90
55083;DHT22;40978;52.850;6.506;2022-12-11T11:20:54;1.10;99.90
55083;DHT22;40978;52.850;6.506;2022-12-11T11:23:21;1.00;99.90
55083;DHT22;40978;52.850;6.506;2022-12-11T11:25:54;1.10;99.90
55083;DHT22;40978;52.850;6.506;2022-12-11T11:28:28;1.10;99.90
55083;DHT22;40978;52.850;6.506;2022-12-11T11:31:03;1.10;99.90
55083;DHT22;40978;52.850;6.506;2022-12-11T11:33:30;1.10;99.90
55083;DHT22;40978;52.850;6.506;2022-12-11T11:36:05;1.10;99.90
55083;DHT22;40978;52.850;6.506;2022-12-11T11:38:36;1.10;99.90
55083;DHT22;40978;52.850;6.506;2022-12-11T11:41:26;1.10;99.90
55083;DHT22;40978;52.850;6.506;2022-12-11T11:44:09;1.10;99.90
55083;DHT22;40978;52.850;6.506;2022-12-11T11:46:37;1.20;99.90
55083;DHT22;40978;52.850;6.506;2022-12-11T11:55:08;1.20;99.90
55083;DHT22;40978;52.850;6.506;2022-12-11T11:57:42;1.10;99.90
55083;DHT22;40978;52.850;6.506;2022-12-11T12:00:21;1.10;99.90
55083;DHT22;40978;52.850;6.506;2022-12-11T12:02:50;1.20;99.90
55083;DHT22;40978;52.850;6.506;2022-12-11T12:05:24;1.20;99.90
55083;DHT22;40978;52.850;6.506;2022-12-11T12:08:12;1.20;99.90
55083;DHT22;40978;52.850;6.506;2022-12-11T12:10:47;1.20;99.90
55083;DHT22;40978;52.850;6.506;2022-12-11T12:13:39;1.20;99.90
55083;DHT22;40978;52.850;6.506;2022-12-11T12:16:21;1.20;99.90
55083;DHT22;40978;52.850;6.506;2022-12-11T12:19:13;1.20;99.90
55083;DHT22;40978;52.850;6.506;2022-12-11T12:21:42;1.20;99.90
55083;DHT22;40978;52.850;6.506;2022-12-11T12:27:12;1.20;99.90
55083;DHT22;40978;52.850;6.506;2022-12-11T12:30:01;1.40;99.90
55083;DHT22;40978;52.850;6.506;2022-12-11T12:32:35;1.20;99.90
55083;DHT22;40978;52.850;6.506;2022-12-11T12:38:02;1.20;99.90
55083;DHT22;40978;52.850;6.506;2022-12-11T12:49:01;1.20;99.90
55083;DHT22;40978;52.850;6.506;2022-12-11T12:51:28;1.20;99.90
55083;DHT22;40978;52.850;6.506;2022-12-11T12:53:57;1.20;99.90
55083;DHT22;40978;52.850;6.506;2022-12-11T12:56:25;1.30;99.90
55083;DHT22;40978;52.850;6.506;2022-12-11T12:58:51;1.20;99.90
55083;DHT22;40978;52.850;6.506;2022-12-11T13:01:27;1.20;99.90
55083;DHT22;40978;52.850;6.506;2022-12-11T13:04:00;1.30;99.90
55083;DHT22;40978;52.850;6.506;2022-12-11T13:08:57;1.20;99.90
55083;DHT22;40978;52.850;6.506;2022-12-11T13:11:31;1.20;99.90
55083;DHT22;40978;52.850;6.506;2022-12-11T13:14:02;1.30;99.90
55083;DHT22;40978;52.850;6.506;2022-12-11T13:16:37;1.30;99.90
55083;DHT22;40978;52.850;6.506;2022-12-11T13:21:41;1.30;99.90
55083;DHT22;40978;52.850;6.506;2022-12-11T13:26:40;1.30;99.90
55083;DHT22;40978;52.850;6.506;2022-12-11T13:29:27;1.30;99.90
55083;DHT22;40978;52.850;6.506;2022-12-11T13:32:03;1.20;99.90
55083;DHT22;40978;52.850;6.506;2022-12-11T13:34:36;1.20;99.90
55083;DHT22;40978;52.850;6.506;2022-12-11T13:37:03;1.30;99.90
55083;DHT22;40978;52.850;6.506;2022-12-11T13:39:31;1.20;99.90
55083;DHT22;40978;52.850;6.506;2022-12-11T13:42:02;1.20;99.90
55083;DHT22;40978;52.850;6.506;2022-12-11T13:44:38;1.20;99.90
55083;DHT22;40978;52.850;6.506;2022-12-11T13:47:06;1.10;99.90
55083;DHT22;40978;52.850;6.506;2022-12-11T13:49:37;1.20;99.90
55083;DHT22;40978;52.850;6.506;2022-12-11T13:52:05;1.20;99.90
55083;DHT22;40978;52.850;6.506;2022-12-11T13:54:34;1.10;99.90
55083;DHT22;40978;52.850;6.506;2022-12-11T13:57:12;1.10;99.90
55083;DHT22;40978;52.850;6.506;2022-12-11T13:59:51;1.10;99.90
55083;DHT22;40978;52.850;6.506;2022-12-11T14:02:32;1.10;99.90
55083;DHT22;40978;52.850;6.506;2022-12-11T14:05:02;1.00;99.90
55083;DHT22;40978;52.850;6.506;2022-12-11T14:07:35;1.10;99.90
55083;DHT22;40978;52.850;6.506;2022-12-11T14:12:42;1.00;99.90
55083;DHT22;40978;52.850;6.506;2022-12-11T14:15:13;0.90;99.90
55083;DHT22;40978;52.850;6.506;2022-12-11T14:17:41;0.90;99.90
55083;DHT22;40978;52.850;6.506;2022-12-11T14:20:17;0.90;99.90
55083;DHT22;40978;52.850;6.506;2022-12-11T14:22:43;0.90;99.90
55083;DHT22;40978;52.850;6.506;2022-12-11T14:25:23;0.90;99.90
55083;DHT22;40978;52.850;6.506;2022-12-11T14:27:54;0.90;99.90
55083;DHT22;40978;52.850;6.506;2022-12-11T14:30:26;0.90;99.90
55083;DHT22;40978;52.850;6.506;2022-12-11T14:33:01;0.90;99.90
55083;DHT22;40978;52.850;6.506;2022-12-11T14:35:32;0.90;99.90
55083;DHT22;40978;52.850;6.506;2022-12-11T14:38:13;1.00;99.90
55083;DHT22;40978;52.850;6.506;2022-12-11T14:40:44;1.00;99.90
55083;DHT22;40978;52.850;6.506;2022-12-11T14:43:27;0.90;99.90
55083;DHT22;40978;52.850;6.506;2022-12-11T14:46:03;0.90;99.90
55083;DHT22;40978;52.850;6.506;2022-12-11T14:48:41;0.90;99.90
55083;DHT22;40978;52.850;6.506;2022-12-11T14:51:12;0.90;99.90
55083;DHT22;40978;52.850;6.506;2022-12-11T14:53:45;0.90;99.90
55083;DHT22;40978;52.850;6.506;2022-12-11T14:56:20;0.90;99.90
55083;DHT22;40978;52.850;6.506;2022-12-11T14:58:54;0.90;99.90
55083;DHT22;40978;52.850;6.506;2022-12-11T15:01:28;0.80;99.90
55083;DHT22;40978;52.850;6.506;2022-12-11T15:06:46;0.90;99.90
55083;DHT22;40978;52.850;6.506;2022-12-11T15:09:26;0.80;99.90
55083;DHT22;40978;52.850;6.506;2022-12-11T15:11:55;0.80;99.90
55083;DHT22;40978;52.850;6.506;2022-12-11T15:14:23;0.80;99.90
55083;DHT22;40978;52.850;6.506;2022-12-11T15:16:51;0.80;99.90
55083;DHT22;40978;52.850;6.506;2022-12-11T15:19:24;0.80;99.90
55083;DHT22;40978;52.850;6.506;2022-12-11T15:21:51;0.80;99.90
55083;DHT22;40978;52.850;6.506;2022-12-11T15:24:24;0.80;99.90
55083;DHT22;40978;52.850;6.506;2022-12-11T15:26:50;0.80;99.90
55083;DHT22;40978;52.850;6.506;2022-12-11T15:29:37;0.70;99.90
55083;DHT22;40978;52.850;6.506;2022-12-11T15:34:42;0.80;99.90
55083;DHT22;40978;52.850;6.506;2022-12-11T15:37:35;0.80;99.90
55083;DHT22;40978;52.850;6.506;2022-12-11T15:40:04;0.80;99.90
55083;DHT22;40978;52.850;6.506;2022-12-11T15:42:31;0.70;99.90
55083;DHT22;40978;52.850;6.506;2022-12-11T15:44:59;0.80;99.90
55083;DHT22;40978;52.850;6.506;2022-12-11T15:47:27;0.70;99.90
55083;DHT22;40978;52.850;6.506;2022-12-11T15:50:00;0.80;99.90
55083;DHT22;40978;52.850;6.506;2022-12-11T15:52:26;0.70;99.90
55083;DHT22;40978;52.850;6.506;2022-12-11T15:54:52;0.70;99.90
55083;DHT22;40978;52.850;6.506;2022-12-11T15:57:21;0.70;99.90
55083;DHT22;40978;52.850;6.506;2022-12-11T15:59:48;0.70;99.90
55083;DHT22;40978;52.850;6.506;2022-12-11T16:02:14;0.70;99.90
55083;DHT22;40978;52.850;6.506;2022-12-11T16:04:40;0.70;99.90
55083;DHT22;40978;52.850;6.506;2022-12-11T16:07:19;0.80;99.90
55083;DHT22;40978;52.850;6.506;2022-12-11T16:09:45;0.70;99.90
55083;DHT22;40978;52.850;6.506;2022-12-11T16:12:12;0.70;99.90
55083;DHT22;40978;52.850;6.506;2022-12-11T16:14:42;0.70;99.90
55083;DHT22;40978;52.850;6.506;2022-12-11T16:17:10;0.80;99.90
55083;DHT22;40978;52.850;6.506;2022-12-11T16:19:37;0.80;99.90
55083;DHT22;40978;52.850;6.506;2022-12-11T16:22:04;0.70;99.90
55083;DHT22;40978;52.850;6.506;2022-12-11T16:24:31;0.80;99.90
55083;DHT22;40978;52.850;6.506;2022-12-11T16:26:56;0.70;99.90
55083;DHT22;40978;52.850;6.506;2022-12-11T16:29:22;0.70;99.90
55083;DHT22;40978;52.850;6.506;2022-12-11T16:31:48;0.70;99.90
55083;DHT22;40978;52.850;6.506;2022-12-11T16:34:13;0.70;99.90
55083;DHT22;40978;52.850;6.506;2022-12-11T16:36:39;0.70;99.90
55083;DHT22;40978;52.850;6.506;2022-12-11T16:39:05;0.70;99.90
55083;DHT22;40978;52.850;6.506;2022-12-11T16:41:31;0.70;99.90
55083;DHT22;40978;52.850;6.506;2022-12-11T16:43:57;0.70;99.90
55083;DHT22;40978;52.850;6.506;2022-12-11T16:46:25;0.70;99.90
55083;DHT22;40978;52.850;6.506;2022-12-11T16:48:51;0.70;99.90
55083;DHT22;40978;52.850;6.506;2022-12-11T16:51:16;0.70;99.90
55083;DHT22;40978;52.850;6.506;2022-12-11T16:53:42;0.70;99.90
55083;DHT22;40978;52.850;6.506;2022-12-11T16:56:08;0.60;99.90
55083;DHT22;40978;52.850;6.506;2022-12-11T16:58:34;0.70;99.90
55083;DHT22;40978;52.850;6.506;2022-12-11T17:01:00;0.70;99.90
55083;DHT22;40978;52.850;6.506;2022-12-11T17:03:28;0.70;99.90
55083;DHT22;40978;52.850;6.506;2022-12-11T17:05:54;0.70;99.90
55083;DHT22;40978;52.850;6.506;2022-12-11T17:08:20;0.70;99.90
55083;DHT22;40978;52.850;6.506;2022-12-11T17:10:46;0.70;99.90
55083;DHT22;40978;52.850;6.506;2022-12-11T17:13:12;0.70;99.90